sensor_id;sensor_type;location;lat;lon;timestamp;temperature;humidity
10911;DHT22;5508;49.150;11.030;2023-04-03T00:01:49;2.10;79.10
10911;DHT22;5508;49.150;11.030;2023-04-03T00:04:51;2.00;78.00
10911;DHT22;5508;49.150;11.030;2023-04-03T00:07:51;2.00;77.00
10911;DHT22;5508;49.150;11.030;2023-04-03T00:10:52;2.00;77.10
10911;DHT22;5508;49.150;11.030;2023-04-03T00:13:52;2.00;77.20
10911;DHT22;5508;49.150;11.030;2023-04-03T00:16:53;1.90;77.80
10911;DHT22;5508;49.150;11.030;2023-04-03T00:19:54;1.90;79.70
10911;DHT22;5508;49.150;11.030;2023-04-03T00:22:55;1.90;79.80
10911;DHT22;5508;49.150;11.030;2023-04-03T00:25:55;1.80;79.40
10911;DHT22;5508;49.150;11.030;2023-04-03T00:28:56;1.80;79.60
10911;DHT22;5508;49.150;11.030;2023-04-03T00:31:56;1.80;80.70
10911;DHT22;5508;49.150;11.030;2023-04-03T00:34:57;1.80;81.20
10911;DHT22;5508;49.150;11.030;2023-04-03T00:37:57;1.80;81.20
10911;DHT22;5508;49.150;11.030;2023-04-03T00:40:58;1.80;81.60
10911;DHT22;5508;49.150;11.030;2023-04-03T00:43:59;1.80;81.20
10911;DHT22;5508;49.150;11.030;2023-04-03T00:47:00;1.80;83.10
10911;DHT22;5508;49.150;11.030;2023-04-03T00:50:01;1.70;82.70
10911;DHT22;5508;49.150;11.030;2023-04-03T00:53:04;1.70;83.20
10911;DHT22;5508;49.150;11.030;2023-04-03T00:56:07;1.60;84.70
10911;DHT22;5508;49.150;11.030;2023-04-03T00:59:15;1.60;83.60
10911;DHT22;5508;49.150;11.030;2023-04-03T01:02:17;1.50;85.20
10911;DHT22;5508;49.150;11.030;2023-04-03T01:05:20;1.60;85.40
10911;DHT22;5508;49.150;11.030;2023-04-03T01:08:21;1.60;84.80
10911;DHT22;5508;49.150;11.030;2023-04-03T01:11:22;1.60;85.00
10911;DHT22;5508;49.150;11.030;2023-04-03T01:14:22;1.60;84.80
10911;DHT22;5508;49.150;11.030;2023-04-03T01:17:30;1.50;85.30
10911;DHT22;5508;49.150;11.030;2023-04-03T01:23:39;1.50;84.70
10911;DHT22;5508;49.150;11.030;2023-04-03T01:26:42;1.50;84.50
10911;DHT22;5508;49.150;11.030;2023-04-03T01:29:43;1.40;84.50
10911;DHT22;5508;49.150;11.030;2023-04-03T01:32:43;1.40;85.50
10911;DHT22;5508;49.150;11.030;2023-04-03T01:35:44;1.30;85.30
10911;DHT22;5508;49.150;11.030;2023-04-03T01:38:45;1.30;86.00
10911;DHT22;5508;49.150;11.030;2023-04-03T01:41:46;1.30;86.90
10911;DHT22;5508;49.150;11.030;2023-04-03T01:44:47;1.30;86.70
10911;DHT22;5508;49.150;11.030;2023-04-03T01:47:47;1.30;86.50
10911;DHT22;5508;49.150;11.030;2023-04-03T01:50:48;1.20;86.70
10911;DHT22;5508;49.150;11.030;2023-04-03T01:53:48;1.20;87.30
10911;DHT22;5508;49.150;11.030;2023-04-03T01:56:49;1.20;87.00
10911;DHT22;5508;49.150;11.030;2023-04-03T01:59:49;1.20;88.60
10911;DHT22;5508;49.150;11.030;2023-04-03T02:02:51;1.10;88.30
10911;DHT22;5508;49.150;11.030;2023-04-03T02:05:52;1.10;89.20
10911;DHT22;5508;49.150;11.030;2023-04-03T02:08:52;1.10;87.80
10911;DHT22;5508;49.150;11.030;2023-04-03T02:11:53;1.10;88.40
10911;DHT22;5508;49.150;11.030;2023-04-03T02:14:53;1.10;87.80
10911;DHT22;5508;49.150;11.030;2023-04-03T02:17:54;1.10;88.50
10911;DHT22;5508;49.150;11.030;2023-04-03T02:20:55;1.10;89.80
10911;DHT22;5508;49.150;11.030;2023-04-03T02:23:55;1.10;91.80
10911;DHT22;5508;49.150;11.030;2023-04-03T02:26:57;1.10;91.70
10911;DHT22;5508;49.150;11.030;2023-04-03T02:29:57;1.20;88.80
10911;DHT22;5508;49.150;11.030;2023-04-03T02:32:58;1.20;89.10
10911;DHT22;5508;49.150;11.030;2023-04-03T02:35:59;1.20;89.50
10911;DHT22;5508;49.150;11.030;2023-04-03T02:39:00;1.20;88.50
10911;DHT22;5508;49.150;11.030;2023-04-03T02:42:01;1.30;86.60
10911;DHT22;5508;49.150;11.030;2023-04-03T02:45:01;1.20;86.90
10911;DHT22;5508;49.150;11.030;2023-04-03T02:48:02;1.10;88.50
10911;DHT22;5508;49.150;11.030;2023-04-03T02:51:03;1.10;90.40
10911;DHT22;5508;49.150;11.030;2023-04-03T02:54:03;1.10;90.90
10911;DHT22;5508;49.150;11.030;2023-04-03T02:57:04;1.10;91.10
10911;DHT22;5508;49.150;11.030;2023-04-03T03:00:06;1.00;91.10
10911;DHT22;5508;49.150;11.030;2023-04-03T03:03:07;1.00;91.40
10911;DHT22;5508;49.150;11.030;2023-04-03T03:06:13;0.90;92.50
10911;DHT22;5508;49.150;11.030;2023-04-03T03:09:14;0.90;91.90
10911;DHT22;5508;49.150;11.030;2023-04-03T03:12:15;0.90;92.50
10911;DHT22;5508;49.150;11.030;2023-04-03T03:15:16;0.90;93.50
10911;DHT22;5508;49.150;11.030;2023-04-03T03:18:17;0.90;94.00
10911;DHT22;5508;49.150;11.030;2023-04-03T03:21:18;0.90;96.20
10911;DHT22;5508;49.150;11.030;2023-04-03T03:24:18;1.00;96.70
10911;DHT22;5508;49.150;11.030;2023-04-03T03:27:19;0.90;95.20
10911;DHT22;5508;49.150;11.030;2023-04-03T03:30:20;0.90;96.60
10911;DHT22;5508;49.150;11.030;2023-04-03T03:33:21;0.90;95.00
10911;DHT22;5508;49.150;11.030;2023-04-03T03:36:22;0.90;93.70
10911;DHT22;5508;49.150;11.030;2023-04-03T03:39:22;0.90;92.20
10911;DHT22;5508;49.150;11.030;2023-04-03T03:42:23;1.00;90.70
10911;DHT22;5508;49.150;11.030;2023-04-03T03:45:23;1.00;91.90
10911;DHT22;5508;49.150;11.030;2023-04-03T03:48:24;0.90;91.10
10911;DHT22;5508;49.150;11.030;2023-04-03T03:51:25;0.90;90.50
10911;DHT22;5508;49.150;11.030;2023-04-03T03:54:26;0.90;89.10
10911;DHT22;5508;49.150;11.030;2023-04-03T03:57:26;0.90;89.40
10911;DHT22;5508;49.150;11.030;2023-04-03T04:00:29;0.80;88.90
10911;DHT22;5508;49.150;11.030;2023-04-03T04:03:30;0.80;89.10
10911;DHT22;5508;49.150;11.030;2023-04-03T04:06:31;0.80;88.90
10911;DHT22;5508;49.150;11.030;2023-04-03T04:09:31;0.80;89.80
10911;DHT22;5508;49.150;11.030;2023-04-03T04:12:32;0.80;89.40
10911;DHT22;5508;49.150;11.030;2023-04-03T04:15:33;0.80;90.30
10911;DHT22;5508;49.150;11.030;2023-04-03T04:18:34;0.80;89.70
10911;DHT22;5508;49.150;11.030;2023-04-03T04:21:34;0.80;89.50
10911;DHT22;5508;49.150;11.030;2023-04-03T04:24:35;0.80;90.10
10911;DHT22;5508;49.150;11.030;2023-04-03T04:27:36;0.80;91.30
10911;DHT22;5508;49.150;11.030;2023-04-03T04:30:37;0.70;90.70
10911;DHT22;5508;49.150;11.030;2023-04-03T04:33:38;0.70;90.40
10911;DHT22;5508;49.150;11.030;2023-04-03T04:36:39;0.80;91.40
10911;DHT22;5508;49.150;11.030;2023-04-03T04:39:39;0.80;91.00
10911;DHT22;5508;49.150;11.030;2023-04-03T04:42:40;0.70;91.30
10911;DHT22;5508;49.150;11.030;2023-04-03T04:45:41;0.70;90.10
10911;DHT22;5508;49.150;11.030;2023-04-03T04:48:42;0.60;91.00
10911;DHT22;5508;49.150;11.030;2023-04-03T04:51:43;0.60;90.60
10911;DHT22;5508;49.150;11.030;2023-04-03T04:54:44;0.60;90.60
10911;DHT22;5508;49.150;11.030;2023-04-03T04:57:45;0.60;90.70
10911;DHT22;5508;49.150;11.030;2023-04-03T05:00:45;0.50;91.00
10911;DHT22;5508;49.150;11.030;2023-04-03T05:03:46;0.60;91.20
10911;DHT22;5508;49.150;11.030;2023-04-03T05:06:48;0.50;91.40
10911;DHT22;5508;49.150;11.030;2023-04-03T05:09:48;0.50;90.70
10911;DHT22;5508;49.150;11.030;2023-04-03T05:12:49;0.50;91.50
10911;DHT22;5508;49.150;11.030;2023-04-03T05:15:49;0.50;92.00
10911;DHT22;5508;49.150;11.030;2023-04-03T05:18:50;0.50;92.10
10911;DHT22;5508;49.150;11.030;2023-04-03T05:21:51;0.50;92.20
10911;DHT22;5508;49.150;11.030;2023-04-03T05:24:51;0.60;91.50
10911;DHT22;5508;49.150;11.030;2023-04-03T05:27:52;0.60;91.70
10911;DHT22;5508;49.150;11.030;2023-04-03T05:30:57;0.60;91.80
10911;DHT22;5508;49.150;11.030;2023-04-03T05:33:58;0.60;91.90
10911;DHT22;5508;49.150;11.030;2023-04-03T05:36:59;0.60;91.70
10911;DHT22;5508;49.150;11.030;2023-04-03T05:40:00;0.70;91.40
10911;DHT22;5508;49.150;11.030;2023-04-03T05:43:00;0.70;92.00
10911;DHT22;5508;49.150;11.030;2023-04-03T05:46:01;0.70;91.40
10911;DHT22;5508;49.150;11.030;2023-04-03T05:49:02;0.80;91.90
10911;DHT22;5508;49.150;11.030;2023-04-03T05:52:03;0.90;91.00
10911;DHT22;5508;49.150;11.030;2023-04-03T05:55:04;1.00;90.80
10911;DHT22;5508;49.150;11.030;2023-04-03T05:58:04;0.90;90.50
10911;DHT22;5508;49.150;11.030;2023-04-03T06:01:05;1.00;90.90
10911;DHT22;5508;49.150;11.030;2023-04-03T06:04:06;1.00;91.00
10911;DHT22;5508;49.150;11.030;2023-04-03T06:07:12;1.10;91.50
10911;DHT22;5508;49.150;11.030;2023-04-03T06:10:13;1.20;91.10
10911;DHT22;5508;49.150;11.030;2023-04-03T06:13:14;1.30;90.90
10911;DHT22;5508;49.150;11.030;2023-04-03T06:16:16;1.30;89.90
10911;DHT22;5508;49.150;11.030;2023-04-03T06:19:18;1.40;89.40
10911;DHT22;5508;49.150;11.030;2023-04-03T06:22:18;1.40;90.30
10911;DHT22;5508;49.150;11.030;2023-04-03T06:25:19;1.60;90.80
10911;DHT22;5508;49.150;11.030;2023-04-03T06:28:20;1.70;88.00
10911;DHT22;5508;49.150;11.030;2023-04-03T06:31:20;1.70;89.40
10911;DHT22;5508;49.150;11.030;2023-04-03T06:34:21;1.70;87.90
10911;DHT22;5508;49.150;11.030;2023-04-03T06:37:23;1.70;87.90
10911;DHT22;5508;49.150;11.030;2023-04-03T06:40:26;1.70;87.60
10911;DHT22;5508;49.150;11.030;2023-04-03T06:43:27;1.80;88.30
10911;DHT22;5508;49.150;11.030;2023-04-03T06:46:27;1.80;88.90
10911;DHT22;5508;49.150;11.030;2023-04-03T06:49:28;2.00;89.50
10911;DHT22;5508;49.150;11.030;2023-04-03T06:52:29;2.20;88.60
10911;DHT22;5508;49.150;11.030;2023-04-03T06:55:30;2.20;86.50
10911;DHT22;5508;49.150;11.030;2023-04-03T06:58:30;2.20;87.80
10911;DHT22;5508;49.150;11.030;2023-04-03T07:01:31;2.30;88.90
10911;DHT22;5508;49.150;11.030;2023-04-03T07:04:31;2.50;87.90
10911;DHT22;5508;49.150;11.030;2023-04-03T07:07:32;2.50;87.20
10911;DHT22;5508;49.150;11.030;2023-04-03T07:10:34;2.40;85.60
10911;DHT22;5508;49.150;11.030;2023-04-03T07:13:35;2.40;85.20
10911;DHT22;5508;49.150;11.030;2023-04-03T07:16:36;2.40;85.50
10911;DHT22;5508;49.150;11.030;2023-04-03T07:19:37;2.50;85.90
10911;DHT22;5508;49.150;11.030;2023-04-03T07:22:37;2.70;86.90
10911;DHT22;5508;49.150;11.030;2023-04-03T07:25:48;2.60;84.70
10911;DHT22;5508;49.150;11.030;2023-04-03T07:28:49;2.70;84.90
10911;DHT22;5508;49.150;11.030;2023-04-03T07:31:50;2.80;84.70
10911;DHT22;5508;49.150;11.030;2023-04-03T07:34:51;2.80;83.40
10911;DHT22;5508;49.150;11.030;2023-04-03T07:37:51;2.90;82.90
10911;DHT22;5508;49.150;11.030;2023-04-03T07:40:52;3.00;83.90
10911;DHT22;5508;49.150;11.030;2023-04-03T07:43:53;2.90;82.70
10911;DHT22;5508;49.150;11.030;2023-04-03T07:46:54;2.90;83.00
10911;DHT22;5508;49.150;11.030;2023-04-03T07:49:56;3.20;83.40
10911;DHT22;5508;49.150;11.030;2023-04-03T07:52:57;3.40;81.90
10911;DHT22;5508;49.150;11.030;2023-04-03T07:55:59;3.50;79.60
10911;DHT22;5508;49.150;11.030;2023-04-03T07:58:59;3.50;79.50
10911;DHT22;5508;49.150;11.030;2023-04-03T08:02:00;3.50;80.80
10911;DHT22;5508;49.150;11.030;2023-04-03T08:05:01;3.50;78.10
10911;DHT22;5508;49.150;11.030;2023-04-03T08:08:01;3.60;78.20
10911;DHT22;5508;49.150;11.030;2023-04-03T08:11:02;3.60;77.80
10911;DHT22;5508;49.150;11.030;2023-04-03T08:14:05;3.70;77.00
10911;DHT22;5508;49.150;11.030;2023-04-03T08:17:06;4.00;79.40
10911;DHT22;5508;49.150;11.030;2023-04-03T08:20:10;4.10;78.20
10911;DHT22;5508;49.150;11.030;2023-04-03T08:23:11;4.20;76.30
10911;DHT22;5508;49.150;11.030;2023-04-03T08:26:13;4.20;75.00
10911;DHT22;5508;49.150;11.030;2023-04-03T08:29:14;4.10;74.10
10911;DHT22;5508;49.150;11.030;2023-04-03T08:32:15;4.20;77.40
10911;DHT22;5508;49.150;11.030;2023-04-03T08:35:16;4.30;76.60
10911;DHT22;5508;49.150;11.030;2023-04-03T08:38:16;4.40;73.80
10911;DHT22;5508;49.150;11.030;2023-04-03T08:44:48;4.60;72.30
10911;DHT22;5508;49.150;11.030;2023-04-03T08:48:24;4.60;72.00
10911;DHT22;5508;49.150;11.030;2023-04-03T08:51:26;4.70;68.40
10911;DHT22;5508;49.150;11.030;2023-04-03T08:54:32;4.60;67.00
10911;DHT22;5508;49.150;11.030;2023-04-03T08:57:38;4.70;70.40
10911;DHT22;5508;49.150;11.030;2023-04-03T09:01:16;4.60;71.30
10911;DHT22;5508;49.150;11.030;2023-04-03T09:04:17;4.50;68.00
10911;DHT22;5508;49.150;11.030;2023-04-03T09:07:30;4.70;64.90
10911;DHT22;5508;49.150;11.030;2023-04-03T09:10:34;4.70;66.30
10911;DHT22;5508;49.150;11.030;2023-04-03T09:14:07;4.80;63.10
10911;DHT22;5508;49.150;11.030;2023-04-03T09:23:46;4.70;61.20
10911;DHT22;5508;49.150;11.030;2023-04-03T09:27:05;4.80;65.40
10911;DHT22;5508;49.150;11.030;2023-04-03T09:30:13;4.80;61.70
10911;DHT22;5508;49.150;11.030;2023-04-03T09:33:14;4.70;60.00
10911;DHT22;5508;49.150;11.030;2023-04-03T09:36:45;4.70;60.00
10911;DHT22;5508;49.150;11.030;2023-04-03T09:39:52;4.60;59.60
10911;DHT22;5508;49.150;11.030;2023-04-03T09:42:58;4.60;66.10
10911;DHT22;5508;49.150;11.030;2023-04-03T09:49:19;4.80;63.10
10911;DHT22;5508;49.150;11.030;2023-04-03T09:52:24;5.00;65.10
10911;DHT22;5508;49.150;11.030;2023-04-03T09:55:28;5.30;59.90
10911;DHT22;5508;49.150;11.030;2023-04-03T09:58:36;5.40;62.00
10911;DHT22;5508;49.150;11.030;2023-04-03T10:01:39;5.40;58.60
10911;DHT22;5508;49.150;11.030;2023-04-03T10:04:41;5.60;62.00
10911;DHT22;5508;49.150;11.030;2023-04-03T10:07:42;5.60;56.20
10911;DHT22;5508;49.150;11.030;2023-04-03T10:10:45;5.70;57.50
10911;DHT22;5508;49.150;11.030;2023-04-03T10:13:55;5.70;59.90
10911;DHT22;5508;49.150;11.030;2023-04-03T10:17:22;5.60;56.70
10911;DHT22;5508;49.150;11.030;2023-04-03T10:23:58;5.60;54.30
10911;DHT22;5508;49.150;11.030;2023-04-03T10:27:25;6.10;53.10
10911;DHT22;5508;49.150;11.030;2023-04-03T10:37:25;5.90;49.10
10911;DHT22;5508;49.150;11.030;2023-04-03T10:40:58;5.50;53.10
10911;DHT22;5508;49.150;11.030;2023-04-03T10:44:16;5.50;48.50
10911;DHT22;5508;49.150;11.030;2023-04-03T10:50:38;5.70;49.00
10911;DHT22;5508;49.150;11.030;2023-04-03T10:54:01;5.80;50.90
10911;DHT22;5508;49.150;11.030;2023-04-03T10:57:10;6.00;52.00
10911;DHT22;5508;49.150;11.030;2023-04-03T11:00:16;6.10;52.50
10911;DHT22;5508;49.150;11.030;2023-04-03T11:03:30;6.10;49.40
10911;DHT22;5508;49.150;11.030;2023-04-03T11:06:42;5.80;50.70
10911;DHT22;5508;49.150;11.030;2023-04-03T11:09:46;5.70;51.10
10911;DHT22;5508;49.150;11.030;2023-04-03T11:12:58;6.00;54.40
10911;DHT22;5508;49.150;11.030;2023-04-03T11:16:03;6.10;51.20
10911;DHT22;5508;49.150;11.030;2023-04-03T11:19:26;6.20;55.00
10911;DHT22;5508;49.150;11.030;2023-04-03T11:22:36;6.10;46.80
10911;DHT22;5508;49.150;11.030;2023-04-03T11:25:40;6.80;53.30
10911;DHT22;5508;49.150;11.030;2023-04-03T11:28:43;7.30;47.60
10911;DHT22;5508;49.150;11.030;2023-04-03T11:35:11;6.80;42.30
10911;DHT22;5508;49.150;11.030;2023-04-03T11:38:28;6.40;47.80
10911;DHT22;5508;49.150;11.030;2023-04-03T11:41:31;6.30;48.10
10911;DHT22;5508;49.150;11.030;2023-04-03T11:44:35;6.40;48.30
10911;DHT22;5508;49.150;11.030;2023-04-03T11:47:50;6.60;48.80
10911;DHT22;5508;49.150;11.030;2023-04-03T11:50:52;7.70;49.50
10911;DHT22;5508;49.150;11.030;2023-04-03T11:53:53;7.40;45.30
10911;DHT22;5508;49.150;11.030;2023-04-03T11:56:53;6.80;45.30
10911;DHT22;5508;49.150;11.030;2023-04-03T11:59:54;6.40;46.80
10911;DHT22;5508;49.150;11.030;2023-04-03T12:02:56;6.00;47.80
10911;DHT22;5508;49.150;11.030;2023-04-03T12:12:36;6.00;49.80
10911;DHT22;5508;49.150;11.030;2023-04-03T12:24:57;8.10;45.40
10911;DHT22;5508;49.150;11.030;2023-04-03T12:27:58;7.80;47.00
10911;DHT22;5508;49.150;11.030;2023-04-03T12:31:02;7.40;44.60
10911;DHT22;5508;49.150;11.030;2023-04-03T12:44:55;5.70;49.80
10911;DHT22;5508;49.150;11.030;2023-04-03T12:47:56;5.90;48.60
10911;DHT22;5508;49.150;11.030;2023-04-03T12:50:58;6.70;52.80
10911;DHT22;5508;49.150;11.030;2023-04-03T12:54:12;7.20;49.40
10911;DHT22;5508;49.150;11.030;2023-04-03T12:57:19;8.00;45.30
10911;DHT22;5508;49.150;11.030;2023-04-03T13:00:28;8.60;48.40
10911;DHT22;5508;49.150;11.030;2023-04-03T13:03:30;8.10;37.40
10911;DHT22;5508;49.150;11.030;2023-04-03T13:06:37;7.60;40.90
10911;DHT22;5508;49.150;11.030;2023-04-03T13:09:38;7.70;43.50
10911;DHT22;5508;49.150;11.030;2023-04-03T13:12:48;7.90;44.10
10911;DHT22;5508;49.150;11.030;2023-04-03T13:15:50;8.30;39.00
10911;DHT22;5508;49.150;11.030;2023-04-03T13:18:55;8.30;44.00
10911;DHT22;5508;49.150;11.030;2023-04-03T13:22:11;8.10;37.50
10911;DHT22;5508;49.150;11.030;2023-04-03T13:25:20;8.00;43.40
10911;DHT22;5508;49.150;11.030;2023-04-03T13:28:23;7.80;41.20
10911;DHT22;5508;49.150;11.030;2023-04-03T13:31:36;7.30;38.10
10911;DHT22;5508;49.150;11.030;2023-04-03T13:34:42;7.50;42.20
10911;DHT22;5508;49.150;11.030;2023-04-03T13:37:54;7.50;39.10
10911;DHT22;5508;49.150;11.030;2023-04-03T13:40:58;7.70;40.80
10911;DHT22;5508;49.150;11.030;2023-04-03T13:44:26;7.40;45.20
10911;DHT22;5508;49.150;11.030;2023-04-03T13:47:39;7.60;45.30
10911;DHT22;5508;49.150;11.030;2023-04-03T13:51:02;8.40;38.60
10911;DHT22;5508;49.150;11.030;2023-04-03T13:54:24;8.50;37.00
10911;DHT22;5508;49.150;11.030;2023-04-03T13:57:29;7.70;40.00
10911;DHT22;5508;49.150;11.030;2023-04-03T14:03:45;6.90;46.40
10911;DHT22;5508;49.150;11.030;2023-04-03T14:06:46;6.70;39.80
10911;DHT22;5508;49.150;11.030;2023-04-03T14:09:48;6.90;39.50
10911;DHT22;5508;49.150;11.030;2023-04-03T14:12:48;7.60;38.20
10911;DHT22;5508;49.150;11.030;2023-04-03T14:15:51;8.10;40.70
10911;DHT22;5508;49.150;11.030;2023-04-03T14:18:52;8.20;36.30
10911;DHT22;5508;49.150;11.030;2023-04-03T14:21:54;8.20;36.10
10911;DHT22;5508;49.150;11.030;2023-04-03T14:24:55;8.50;38.10
10911;DHT22;5508;49.150;11.030;2023-04-03T14:27:56;8.10;36.40
10911;DHT22;5508;49.150;11.030;2023-04-03T14:30:58;7.80;38.30
10911;DHT22;5508;49.150;11.030;2023-04-03T14:33:58;8.00;37.00
10911;DHT22;5508;49.150;11.030;2023-04-03T14:36:59;7.90;36.80
10911;DHT22;5508;49.150;11.030;2023-04-03T14:40:01;7.30;39.50
10911;DHT22;5508;49.150;11.030;2023-04-03T14:43:02;6.90;37.50
10911;DHT22;5508;49.150;11.030;2023-04-03T14:46:03;6.80;39.10
10911;DHT22;5508;49.150;11.030;2023-04-03T14:49:12;7.00;37.50
10911;DHT22;5508;49.150;11.030;2023-04-03T14:52:34;7.70;41.40
10911;DHT22;5508;49.150;11.030;2023-04-03T14:55:36;8.50;35.80
10911;DHT22;5508;49.150;11.030;2023-04-03T14:58:36;8.40;34.70
10911;DHT22;5508;49.150;11.030;2023-04-03T15:01:37;7.70;36.20
10911;DHT22;5508;49.150;11.030;2023-04-03T15:04:38;7.20;36.00
10911;DHT22;5508;49.150;11.030;2023-04-03T15:07:41;6.80;43.20
10911;DHT22;5508;49.150;11.030;2023-04-03T15:10:42;6.60;37.90
10911;DHT22;5508;49.150;11.030;2023-04-03T15:13:43;7.00;37.60
10911;DHT22;5508;49.150;11.030;2023-04-03T15:16:44;7.70;38.70
10911;DHT22;5508;49.150;11.030;2023-04-03T15:19:45;8.20;33.70
10911;DHT22;5508;49.150;11.030;2023-04-03T15:22:46;7.70;35.90
10911;DHT22;5508;49.150;11.030;2023-04-03T15:25:48;7.50;36.70
10911;DHT22;5508;49.150;11.030;2023-04-03T15:28:49;6.90;38.40
10911;DHT22;5508;49.150;11.030;2023-04-03T15:31:49;6.60;37.40
10911;DHT22;5508;49.150;11.030;2023-04-03T15:34:54;6.50;38.50
10911;DHT22;5508;49.150;11.030;2023-04-03T15:37:55;6.20;38.40
10911;DHT22;5508;49.150;11.030;2023-04-03T15:40:56;6.10;38.30
10911;DHT22;5508;49.150;11.030;2023-04-03T15:43:56;6.30;41.60
10911;DHT22;5508;49.150;11.030;2023-04-03T15:46:58;6.60;45.40
10911;DHT22;5508;49.150;11.030;2023-04-03T15:49:59;7.20;36.80
10911;DHT22;5508;49.150;11.030;2023-04-03T15:53:00;7.60;37.60
10911;DHT22;5508;49.150;11.030;2023-04-03T15:56:01;7.90;37.30
10911;DHT22;5508;49.150;11.030;2023-04-03T15:59:02;7.50;36.70
10911;DHT22;5508;49.150;11.030;2023-04-03T16:02:05;7.10;39.20
10911;DHT22;5508;49.150;11.030;2023-04-03T16:05:07;6.70;40.20
10911;DHT22;5508;49.150;11.030;2023-04-03T16:08:08;6.50;44.60
10911;DHT22;5508;49.150;11.030;2023-04-03T16:11:09;6.40;42.20
10911;DHT22;5508;49.150;11.030;2023-04-03T16:14:10;6.20;41.60
10911;DHT22;5508;49.150;11.030;2023-04-03T16:17:11;6.00;41.50
10911;DHT22;5508;49.150;11.030;2023-04-03T16:20:13;5.90;45.00
10911;DHT22;5508;49.150;11.030;2023-04-03T16:23:14;5.80;45.30
10911;DHT22;5508;49.150;11.030;2023-04-03T16:26:14;5.80;44.90
10911;DHT22;5508;49.150;11.030;2023-04-03T16:29:15;5.80;44.40
10911;DHT22;5508;49.150;11.030;2023-04-03T16:32:16;5.90;44.00
10911;DHT22;5508;49.150;11.030;2023-04-03T16:35:17;5.90;47.00
10911;DHT22;5508;49.150;11.030;2023-04-03T16:38:18;5.70;43.00
10911;DHT22;5508;49.150;11.030;2023-04-03T16:41:19;5.60;43.20
10911;DHT22;5508;49.150;11.030;2023-04-03T16:44:19;5.50;44.70
10911;DHT22;5508;49.150;11.030;2023-04-03T16:47:20;5.40;43.50
10911;DHT22;5508;49.150;11.030;2023-04-03T16:50:21;5.30;46.20
10911;DHT22;5508;49.150;11.030;2023-04-03T16:53:23;5.30;44.70
10911;DHT22;5508;49.150;11.030;2023-04-03T16:56:24;5.20;44.70
10911;DHT22;5508;49.150;11.030;2023-04-03T16:59:27;5.10;46.80
10911;DHT22;5508;49.150;11.030;2023-04-03T17:02:28;5.00;46.40
10911;DHT22;5508;49.150;11.030;2023-04-03T17:05:29;5.00;49.50
10911;DHT22;5508;49.150;11.030;2023-04-03T17:08:30;4.90;46.50
10911;DHT22;5508;49.150;11.030;2023-04-03T17:11:31;4.90;48.80
10911;DHT22;5508;49.150;11.030;2023-04-03T17:14:31;4.80;47.60
10911;DHT22;5508;49.150;11.030;2023-04-03T17:17:32;4.70;47.50
10911;DHT22;5508;49.150;11.030;2023-04-03T17:20:32;4.60;49.20
10911;DHT22;5508;49.150;11.030;2023-04-03T17:23:34;4.50;49.00
10911;DHT22;5508;49.150;11.030;2023-04-03T17:26:36;4.50;49.40
10911;DHT22;5508;49.150;11.030;2023-04-03T17:29:37;4.50;48.20
10911;DHT22;5508;49.150;11.030;2023-04-03T17:32:37;4.40;49.20
10911;DHT22;5508;49.150;11.030;2023-04-03T17:35:38;4.30;49.10
10911;DHT22;5508;49.150;11.030;2023-04-03T17:38:38;4.30;49.50
10911;DHT22;5508;49.150;11.030;2023-04-03T17:41:39;4.20;49.50
10911;DHT22;5508;49.150;11.030;2023-04-03T17:44:39;4.20;50.00
10911;DHT22;5508;49.150;11.030;2023-04-03T17:47:40;4.10;51.10
10911;DHT22;5508;49.150;11.030;2023-04-03T17:50:41;4.10;50.00
10911;DHT22;5508;49.150;11.030;2023-04-03T17:53:42;4.00;50.50
10911;DHT22;5508;49.150;11.030;2023-04-03T17:56:43;3.90;51.00
10911;DHT22;5508;49.150;11.030;2023-04-03T17:59:47;3.90;51.20
10911;DHT22;5508;49.150;11.030;2023-04-03T18:02:52;3.90;53.00
10911;DHT22;5508;49.150;11.030;2023-04-03T18:05:53;3.80;52.00
10911;DHT22;5508;49.150;11.030;2023-04-03T18:08:55;3.80;51.80
10911;DHT22;5508;49.150;11.030;2023-04-03T18:12:00;3.70;54.30
10911;DHT22;5508;49.150;11.030;2023-04-03T18:15:03;3.70;53.10
10911;DHT22;5508;49.150;11.030;2023-04-03T18:18:03;3.70;52.80
10911;DHT22;5508;49.150;11.030;2023-04-03T18:21:04;3.70;54.70
10911;DHT22;5508;49.150;11.030;2023-04-03T18:24:10;3.70;54.00
10911;DHT22;5508;49.150;11.030;2023-04-03T18:27:17;3.60;54.60
10911;DHT22;5508;49.150;11.030;2023-04-03T18:30:18;3.60;54.30
10911;DHT22;5508;49.150;11.030;2023-04-03T18:33:18;3.50;52.50
10911;DHT22;5508;49.150;11.030;2023-04-03T18:36:19;3.50;53.90
10911;DHT22;5508;49.150;11.030;2023-04-03T18:39:20;3.50;55.60
10911;DHT22;5508;49.150;11.030;2023-04-03T18:42:23;3.40;56.80
10911;DHT22;5508;49.150;11.030;2023-04-03T18:45:25;3.30;54.00
10911;DHT22;5508;49.150;11.030;2023-04-03T18:48:26;3.30;57.10
10911;DHT22;5508;49.150;11.030;2023-04-03T18:51:26;3.20;53.80
10911;DHT22;5508;49.150;11.030;2023-04-03T18:54:27;3.10;53.80
10911;DHT22;5508;49.150;11.030;2023-04-03T18:57:27;3.00;53.70
10911;DHT22;5508;49.150;11.030;2023-04-03T19:00:28;2.90;56.10
10911;DHT22;5508;49.150;11.030;2023-04-03T19:03:29;2.80;54.70
10911;DHT22;5508;49.150;11.030;2023-04-03T19:06:32;2.80;54.00
10911;DHT22;5508;49.150;11.030;2023-04-03T19:09:34;2.70;55.80
10911;DHT22;5508;49.150;11.030;2023-04-03T19:12:34;2.70;53.10
10911;DHT22;5508;49.150;11.030;2023-04-03T19:15:35;2.70;55.20
10911;DHT22;5508;49.150;11.030;2023-04-03T19:18:36;2.60;56.60
10911;DHT22;5508;49.150;11.030;2023-04-03T19:21:36;2.50;55.90
10911;DHT22;5508;49.150;11.030;2023-04-03T19:24:41;2.40;54.20
10911;DHT22;5508;49.150;11.030;2023-04-03T19:27:41;2.30;58.00
10911;DHT22;5508;49.150;11.030;2023-04-03T19:30:42;2.20;56.40
10911;DHT22;5508;49.150;11.030;2023-04-03T19:33:45;2.20;55.00
10911;DHT22;5508;49.150;11.030;2023-04-03T19:36:46;2.10;56.30
10911;DHT22;5508;49.150;11.030;2023-04-03T19:39:48;2.10;56.30
10911;DHT22;5508;49.150;11.030;2023-04-03T19:42:48;2.00;56.70
10911;DHT22;5508;49.150;11.030;2023-04-03T19:45:49;2.00;56.00
10911;DHT22;5508;49.150;11.030;2023-04-03T19:48:49;2.00;57.60
10911;DHT22;5508;49.150;11.030;2023-04-03T19:51:51;1.90;58.30
10911;DHT22;5508;49.150;11.030;2023-04-03T19:54:55;1.90;58.90
10911;DHT22;5508;49.150;11.030;2023-04-03T19:57:59;1.90;57.20
10911;DHT22;5508;49.150;11.030;2023-04-03T20:01:00;1.90;59.50
10911;DHT22;5508;49.150;11.030;2023-04-03T20:04:01;1.90;58.20
10911;DHT22;5508;49.150;11.030;2023-04-03T20:07:02;1.80;58.80
10911;DHT22;5508;49.150;11.030;2023-04-03T20:10:02;1.80;57.20
10911;DHT22;5508;49.150;11.030;2023-04-03T20:13:03;1.70;59.60
10911;DHT22;5508;49.150;11.030;2023-04-03T20:16:08;1.70;62.30
10911;DHT22;5508;49.150;11.030;2023-04-03T20:19:08;1.60;60.10
10911;DHT22;5508;49.150;11.030;2023-04-03T20:22:09;1.60;58.80
10911;DHT22;5508;49.150;11.030;2023-04-03T20:25:11;1.60;56.90
10911;DHT22;5508;49.150;11.030;2023-04-03T20:28:14;1.60;59.60
10911;DHT22;5508;49.150;11.030;2023-04-03T20:31:15;1.60;62.60
10911;DHT22;5508;49.150;11.030;2023-04-03T20:34:15;1.60;59.70
10911;DHT22;5508;49.150;11.030;2023-04-03T20:37:17;1.60;57.90